Time;durP1;ratioP1;P1;durP2;ratioP2;P2;SDS_P1;SDS_P2;PMS_P1;PMS_P2;Temp;Humidity;BMP_temperature;BMP_pressure;BME280_temperature;BME280_humidity;BME280_pressure;Samples;Min_cycle;Max_cycle;Signal;HPM_P1;HPM_P2
2021/12/26 00:01:54;;;;;;;23.60;21.20;;;18.60;45.50;;;;;;5018898;28;20313;-70
2021/12/26 00:04:22;;;;;;;23.13;20.75;;;18.60;45.60;;;;;;5035395;28;20211;-72
2021/12/26 00:06:49;;;;;;;24.23;21.73;;;18.60;45.60;;;;;;5017823;28;20216;-71
2021/12/26 00:09:16;;;;;;;23.00;20.35;;;18.60;45.60;;;;;;5017316;28;20231;-72
2021/12/26 00:11:45;;;;;;;23.30;21.00;;;18.60;45.70;;;;;;5017060;28;20249;-71
2021/12/26 00:14:12;;;;;;;24.05;21.45;;;18.60;45.70;;;;;;5021681;28;20526;-70
2021/12/26 00:16:39;;;;;;;21.55;19.25;;;18.50;45.60;;;;;;5033588;28;20227;-71
2021/12/26 00:19:06;;;;;;;21.83;19.52;;;18.60;45.60;;;;;;5029769;28;20591;-70
2021/12/26 00:21:34;;;;;;;22.25;19.95;;;18.50;45.60;;;;;;5029851;28;20232;-72
2021/12/26 00:24:01;;;;;;;22.50;20.15;;;18.50;45.60;;;;;;5030790;28;20240;-70
2021/12/26 00:26:31;;;;;;;23.40;21.10;;;18.50;45.70;;;;;;5016656;28;20220;-70
2021/12/26 00:28:58;;;;;;;22.10;19.80;;;18.50;45.70;;;;;;5016416;28;20192;-71
2021/12/26 00:31:25;;;;;;;21.77;19.55;;;18.50;45.70;;;;;;5016127;28;20196;-73
2021/12/26 00:33:52;;;;;;;21.90;19.65;;;18.40;45.60;;;;;;5033726;28;20246;-70
2021/12/26 00:36:19;;;;;;;21.25;19.05;;;18.40;46.30;;;;;;5016013;28;20216;-71
2021/12/26 00:38:48;;;;;;;21.02;18.92;;;18.40;45.60;;;;;;5018720;28;20286;-71
2021/12/26 00:41:16;;;;;;;20.88;18.75;;;18.30;46.20;;;;;;5019836;28;20283;-73
2021/12/26 00:43:43;;;;;;;20.33;18.27;;;18.30;45.70;;;;;;5019463;28;20204;-69
2021/12/26 00:46:10;;;;;;;20.83;18.83;;;18.30;45.70;;;;;;5019440;28;20212;-72
2021/12/26 00:48:37;;;;;;;20.58;18.50;;;18.30;45.70;;;;;;5036741;28;20243;-73
2021/12/26 00:51:05;;;;;;;20.63;18.60;;;18.30;45.70;;;;;;5019141;28;20204;-71
2021/12/26 00:53:33;;;;;;;20.63;18.52;;;18.30;45.70;;;;;;5019844;28;20196;-69
2021/12/26 00:56:01;;;;;;;19.63;17.33;;;18.30;45.70;;;;;;5019341;28;20252;-71
2021/12/26 00:58:29;;;;;;;20.02;18.02;;;18.20;45.70;;;;;;5019212;28;20711;-71
2021/12/26 01:00:56;;;;;;;20.95;18.63;;;18.20;45.70;;;;;;5019347;28;20234;-71
2021/12/26 01:03:24;;;;;;;19.25;17.35;;;18.20;45.70;;;;;;5019029;28;20253;-71
2021/12/26 01:05:53;;;;;;;18.98;17.08;;;18.20;45.80;;;;;;5018541;28;20628;-71
2021/12/26 01:08:23;;;;;;;19.42;17.42;;;18.20;45.80;;;;;;5018909;28;20231;-71
2021/12/26 01:10:54;;;;;;;19.40;17.50;;;18.20;45.90;;;;;;5018726;28;20195;-71
2021/12/26 01:13:30;;;;;;;18.45;16.70;;;18.10;45.70;;;;;;5018519;28;20668;-70
2021/12/26 01:16:10;;;;;;;18.55;16.75;;;18.10;45.80;;;;;;5018537;28;20624;-71
2021/12/26 01:18:39;;;;;;;19.60;17.60;;;18.10;45.90;;;;;;5018654;28;20196;-70
2021/12/26 01:21:16;;;;;;;18.60;16.77;;;18.10;46.00;;;;;;5018585;28;20203;-73
2021/12/26 01:23:44;;;;;;;18.58;16.75;;;18.10;45.90;;;;;;5018016;28;20195;-72
2021/12/26 01:26:14;;;;;;;17.48;15.73;;;18.10;45.80;;;;;;5018376;28;20224;-71
2021/12/26 01:28:42;;;;;;;17.65;15.85;;;18.10;45.90;;;;;;5018436;28;20203;-72
2021/12/26 01:31:11;;;;;;;17.13;15.48;;;18.10;46.00;;;;;;5018769;28;20220;-71
2021/12/26 01:33:43;;;;;;;17.52;15.82;;;18.10;45.90;;;;;;5018005;28;20184;-69
2021/12/26 01:36:36;;;;;;;16.38;14.82;;;18.00;45.80;;;;;;4990468;28;20239;-71
2021/12/26 01:39:38;;;;;;;16.67;14.98;;;18.00;45.80;;;;;;5017900;28;20567;-71
2021/12/26 01:42:27;;;;;;;15.93;14.32;;;18.00;45.90;;;;;;5021708;28;20714;-71
2021/12/26 01:45:19;;;;;;;16.25;14.65;;;18.00;46.50;;;;;;4989073;28;20311;-71
2021/12/26 01:48:03;;;;;;;15.60;14.10;;;18.00;45.90;;;;;;5018302;28;20210;-71
2021/12/26 01:50:33;;;;;;;17.20;15.50;;;17.90;45.90;;;;;;5017008;28;20207;-71
2021/12/26 01:53:00;;;;;;;16.20;14.60;;;17.90;45.90;;;;;;5017541;28;20197;-71
2021/12/26 01:55:38;;;;;;;16.15;14.57;;;17.90;46.00;;;;;;5017396;28;20196;-71
2021/12/26 01:58:06;;;;;;;16.65;14.95;;;17.90;45.90;;;;;;5017455;28;20287;-73
2021/12/26 02:00:35;;;;;;;15.75;14.20;;;17.90;45.90;;;;;;5017224;28;20656;-70
2021/12/26 02:03:02;;;;;;;16.25;14.65;;;17.90;46.00;;;;;;5017628;28;20232;-70
2021/12/26 02:05:29;;;;;;;15.70;14.13;;;17.90;46.00;;;;;;5016912;28;20223;-73
2021/12/26 02:08:03;;;;;;;16.05;14.48;;;17.90;46.00;;;;;;5034940;28;20172;-70
2021/12/26 02:10:30;;;;;;;14.35;12.95;;;17.80;45.90;;;;;;5017093;28;20204;-71
2021/12/26 02:12:57;;;;;;;15.40;13.90;;;17.80;45.90;;;;;;5017468;28;20203;-71
2021/12/26 02:15:24;;;;;;;15.55;13.93;;;17.80;45.90;;;;;;5016887;28;20200;-71
2021/12/26 02:18:01;;;;;;;16.17;14.52;;;17.80;46.00;;;;;;5016943;28;20195;-69
2021/12/26 02:20:37;;;;;;;14.88;13.43;;;17.80;46.00;;;;;;5017061;28;20203;-71
2021/12/26 02:23:11;;;;;;;14.57;13.18;;;17.80;46.00;;;;;;5016856;28;20254;-71
2021/12/26 02:28:23;;;;;;;13.65;12.40;;;17.80;46.10;;;;;;5017406;28;20675;-71
2021/12/26 02:30:51;;;;;;;14.00;12.70;;;17.80;46.10;;;;;;5017671;28;20249;-71
2021/12/26 02:33:18;;;;;;;14.25;12.82;;;17.70;46.00;;;;;;5036037;28;20218;-72
2021/12/26 02:35:47;;;;;;;14.13;12.73;;;17.70;46.10;;;;;;5017216;28;20191;-71
2021/12/26 02:38:15;;;;;;;13.27;12.00;;;17.70;46.60;;;;;;5017535;28;20262;-71
2021/12/26 02:40:42;;;;;;;13.77;12.48;;;17.70;46.10;;;;;;5018249;28;20272;-71
2021/12/26 02:43:09;;;;;;;14.43;12.90;;;17.70;46.00;;;;;;5017267;28;20200;-71
2021/12/26 02:45:37;;;;;;;13.15;11.85;;;17.70;46.00;;;;;;5016573;28;20216;-70
2021/12/26 02:48:07;;;;;;;13.00;11.70;;;17.70;46.10;;;;;;5016553;28;20647;-71
2021/12/26 02:50:34;;;;;;;12.95;11.75;;;17.70;46.20;;;;;;5016708;28;20196;-71
2021/12/26 02:53:04;;;;;;;12.98;11.77;;;17.70;46.20;;;;;;5016394;28;20192;-70
2021/12/26 02:55:31;;;;;;;12.35;11.23;;;17.60;46.10;;;;;;5016874;28;20287;-70
2021/12/26 02:58:00;;;;;;;14.98;13.38;;;17.60;46.10;;;;;;5016910;28;20682;-70
2021/12/26 03:00:28;;;;;;;13.10;11.77;;;17.60;46.10;;;;;;5016500;28;20686;-71
2021/12/26 03:02:57;;;;;;;12.93;11.63;;;17.60;46.10;;;;;;5016470;28;20196;-70
2021/12/26 03:05:32;;;;;;;13.40;12.10;;;17.60;46.20;;;;;;5016360;28;20215;-70
2021/12/26 03:08:00;;;;;;;13.05;11.80;;;17.70;46.20;;;;;;5016545;28;20629;-71
2021/12/26 03:10:28;;;;;;;13.27;12.07;;;17.60;46.10;;;;;;5016403;28;20208;-70
2021/12/26 03:12:58;;;;;;;12.40;11.20;;;17.60;46.10;;;;;;5016068;28;20207;-71
2021/12/26 03:15:25;;;;;;;13.10;11.90;;;17.60;46.10;;;;;;5016380;28;20204;-72
2021/12/26 03:17:53;;;;;;;11.95;10.85;;;17.60;46.00;;;;;;5016422;28;20247;-71
2021/12/26 03:20:22;;;;;;;12.75;11.55;;;17.50;46.00;;;;;;5016222;28;20224;-72
2021/12/26 03:22:49;;;;;;;12.55;11.35;;;17.50;46.10;;;;;;5016286;28;20545;-71
2021/12/26 03:25:17;;;;;;;11.88;10.77;;;17.50;46.00;;;;;;5016355;28;20216;-71
2021/12/26 03:27:46;;;;;;;12.80;11.52;;;17.50;46.30;;;;;;5016137;28;20238;-73
2021/12/26 03:30:15;;;;;;;12.95;11.68;;;17.50;46.00;;;;;;5016508;28;20570;-70
2021/12/26 03:32:43;;;;;;;12.20;11.00;;;17.50;46.00;;;;;;5016689;28;20196;-73
2021/12/26 03:35:10;;;;;;;11.77;10.68;;;17.50;46.00;;;;;;5016230;28;20199;-70
2021/12/26 03:37:37;;;;;;;11.38;10.27;;;17.50;46.00;;;;;;5016322;28;20216;-70
2021/12/26 03:40:13;;;;;;;11.23;10.13;;;17.50;46.10;;;;;;5016476;28;20574;-71
2021/12/26 03:42:42;;;;;;;11.05;10.05;;;17.50;46.10;;;;;;5016648;28;20250;-69
2021/12/26 03:45:10;;;;;;;11.50;10.38;;;17.50;46.10;;;;;;5016259;28;20220;-72
2021/12/26 03:47:37;;;;;;;11.43;10.40;;;17.40;46.00;;;;;;5017065;28;20254;-72
2021/12/26 03:50:05;;;;;;;12.10;10.90;;;17.40;46.00;;;;;;5017718;28;20679;-70
2021/12/26 03:52:33;;;;;;;11.80;10.68;;;17.40;46.00;;;;;;5017651;28;20204;-72
2021/12/26 03:55:00;;;;;;;10.70;9.70;;;17.40;46.00;;;;;;5016998;28;20188;-70
2021/12/26 03:57:27;;;;;;;11.77;10.57;;;17.40;46.10;;;;;;5016679;28;20226;-73
2021/12/26 03:59:55;;;;;;;10.52;9.52;;;17.40;46.00;;;;;;5016583;28;20608;-71
2021/12/26 04:02:23;;;;;;;11.30;10.20;;;17.40;46.00;;;;;;5016385;28;20664;-71
2021/12/26 04:04:50;;;;;;;10.40;9.40;;;17.40;46.00;;;;;;5016223;28;20195;-72
2021/12/26 04:07:17;;;;;;;11.52;10.32;;;17.40;46.00;;;;;;5016372;28;20225;-70
2021/12/26 04:09:44;;;;;;;10.50;9.60;;;17.40;46.10;;;;;;5016111;28;20195;-71
2021/12/26 04:12:13;;;;;;;10.00;9.10;;;17.40;46.10;;;;;;5017204;28;20211;-71
2021/12/26 04:14:41;;;;;;;10.00;9.10;;;17.40;46.20;;;;;;5020195;28;20279;-71
2021/12/26 04:17:08;;;;;;;10.43;9.43;;;17.40;46.20;;;;;;5020089;28;20223;-71
2021/12/26 04:19:38;;;;;;;10.48;9.48;;;17.30;46.00;;;;;;5020251;28;20234;-73
2021/12/26 04:22:08;;;;;;;10.65;9.65;;;17.40;46.10;;;;;;5037931;28;20188;-71
2021/12/26 04:24:35;;;;;;;9.82;8.93;;;17.40;46.00;;;;;;5020099;28;20224;-69
2021/12/26 04:27:02;;;;;;;10.13;9.13;;;17.40;45.90;;;;;;5019548;28;20248;-72
2021/12/26 04:29:29;;;;;;;9.73;8.73;;;17.40;46.00;;;;;;5020030;28;20836;-71
2021/12/26 04:31:56;;;;;;;10.02;9.07;;;17.40;45.80;;;;;;5019692;28;20199;-71
2021/12/26 04:34:23;;;;;;;9.90;9.00;;;17.50;45.80;;;;;;5019483;28;20652;-69
2021/12/26 04:36:52;;;;;;;10.10;9.20;;;17.40;45.70;;;;;;5019351;28;20278;-70
2021/12/26 04:39:19;;;;;;;9.63;8.73;;;17.50;45.80;;;;;;5019869;28;20200;-71
2021/12/26 04:41:47;;;;;;;10.07;9.18;;;17.50;45.60;;;;;;5019540;28;20196;-71
2021/12/26 04:44:32;;;;;;;10.07;9.20;;;17.50;45.60;;;;;;5037578;28;20185;-72
2021/12/26 04:47:28;;;;;;;10.18;9.27;;;17.50;45.50;;;;;;5037029;28;20704;-71
2021/12/26 04:49:56;;;;;;;9.75;8.85;;;17.50;45.70;;;;;;5019232;28;20290;-72
2021/12/26 04:52:32;;;;;;;10.10;9.20;;;17.60;45.60;;;;;;5019168;28;20202;-71
2021/12/26 04:55:01;;;;;;;10.40;9.48;;;17.70;45.50;;;;;;5018785;28;20244;-72
2021/12/26 04:57:28;;;;;;;9.95;9.05;;;17.60;45.10;;;;;;5019542;28;20227;-71
2021/12/26 04:59:55;;;;;;;9.75;8.90;;;17.60;45.00;;;;;;5027947;28;20241;-70
2021/12/26 05:02:23;;;;;;;9.93;9.02;;;17.70;45.00;;;;;;5019766;28;20200;-69
2021/12/26 05:04:50;;;;;;;10.20;9.27;;;17.70;45.10;;;;;;5037532;28;20274;-71
2021/12/26 05:07:18;;;;;;;9.77;8.88;;;17.70;45.10;;;;;;5037216;28;20215;-71
2021/12/26 05:09:46;;;;;;;10.27;9.38;;;17.60;45.00;;;;;;5019068;28;20204;-70
2021/12/26 05:12:14;;;;;;;10.05;9.05;;;17.70;45.10;;;;;;5019270;28;20206;-70
2021/12/26 05:14:41;;;;;;;9.48;8.68;;;17.70;45.00;;;;;;5019589;28;20234;-72
2021/12/26 05:17:09;;;;;;;9.68;8.75;;;17.70;45.10;;;;;;5019139;28;20219;-73
2021/12/26 05:19:36;;;;;;;10.13;9.23;;;17.70;45.10;;;;;;5019492;28;20254;-70
2021/12/26 05:22:04;;;;;;;9.60;8.80;;;17.70;45.20;;;;;;5019414;28;20231;-72
2021/12/26 05:24:32;;;;;;;9.77;8.90;;;17.70;45.30;;;;;;5018183;28;20200;-71
2021/12/26 05:27:00;;;;;;;9.35;8.52;;;17.70;45.20;;;;;;5037544;28;20579;-70
2021/12/26 05:29:27;;;;;;;9.90;9.00;;;17.70;45.10;;;;;;5019049;28;20200;-70
2021/12/26 05:31:55;;;;;;;9.65;8.75;;;17.80;45.00;;;;;;5037265;28;20250;-72
2021/12/26 05:34:23;;;;;;;9.13;8.25;;;17.80;45.00;;;;;;5019532;28;20283;-72
2021/12/26 05:36:50;;;;;;;9.13;8.32;;;17.80;45.60;;;;;;5019744;28;20216;-71
2021/12/26 05:39:17;;;;;;;8.75;7.95;;;17.80;44.80;;;;;;5019503;28;20196;-70
2021/12/26 05:41:45;;;;;;;8.85;8.05;;;17.80;44.70;;;;;;5019429;28;20676;-71
2021/12/26 05:44:31;;;;;;;9.32;8.43;;;17.90;44.70;;;;;;5019336;28;20200;-71
2021/12/26 05:47:00;;;;;;;9.55;8.75;;;17.90;44.70;;;;;;5019181;28;20238;-70
2021/12/26 05:49:32;;;;;;;8.95;8.15;;;17.90;44.60;;;;;;5018920;28;20279;-69
2021/12/26 05:52:09;;;;;;;8.73;7.93;;;17.90;44.50;;;;;;5019305;28;20195;-72
2021/12/26 05:54:43;;;;;;;9.32;8.40;;;18.00;44.70;;;;;;5018922;28;20532;-71
2021/12/26 05:57:10;;;;;;;9.10;8.30;;;18.00;44.60;;;;;;5036537;28;20235;-72
2021/12/26 05:59:39;;;;;;;8.88;8.07;;;18.00;44.50;;;;;;5018755;28;20228;-73
2021/12/26 06:02:06;;;;;;;8.63;7.82;;;18.00;44.30;;;;;;5018685;28;20270;-71
2021/12/26 06:04:36;;;;;;;8.70;7.90;;;18.00;44.30;;;;;;5018533;28;20211;-70
2021/12/26 06:07:04;;;;;;;8.65;7.85;;;18.00;44.40;;;;;;5018730;28;20224;-69
2021/12/26 06:09:31;;;;;;;8.38;7.68;;;18.00;44.40;;;;;;5018748;28;20223;-71
2021/12/26 06:11:58;;;;;;;8.75;7.95;;;18.00;44.40;;;;;;5018543;28;20207;-73
2021/12/26 06:14:26;;;;;;;7.95;7.25;;;18.00;44.30;;;;;;5019485;28;20246;-70
2021/12/26 06:16:54;;;;;;;8.00;7.35;;;18.00;44.30;;;;;;5019794;28;20219;-74
2021/12/26 06:19:40;;;;;;;8.43;7.63;;;18.00;44.20;;;;;;5036673;28;20187;-72
2021/12/26 06:22:33;;;;;;;8.10;7.40;;;18.10;44.30;;;;;;5032546;28;20633;-70
2021/12/26 06:25:19;;;;;;;8.20;7.50;;;18.10;44.30;;;;;;5036247;28;20271;-74
2021/12/26 06:27:51;;;;;;;8.02;7.35;;;18.10;44.30;;;;;;5018462;28;20639;-72
2021/12/26 06:30:41;;;;;;;7.70;7.00;;;18.10;44.30;;;;;;5036144;28;20227;-72
2021/12/26 06:33:47;;;;;;;7.70;7.00;;;18.10;44.30;;;;;;5036427;28;20196;-72
2021/12/26 06:36:41;;;;;;;8.07;7.38;;;18.10;44.30;;;;;;5013250;28;20212;-72
2021/12/26 06:39:26;;;;;;;7.70;7.00;;;18.10;44.30;;;;;;5037169;28;20192;-72
2021/12/26 06:42:14;;;;;;;7.72;7.03;;;18.20;44.40;;;;;;5030574;28;20190;-72
2021/12/26 06:44:59;;;;;;;7.90;7.15;;;18.20;44.40;;;;;;5036782;28;20658;-72
2021/12/26 06:47:42;;;;;;;8.27;7.47;;;18.10;44.20;;;;;;5018843;28;20274;-72
2021/12/26 06:50:11;;;;;;;7.97;7.28;;;18.10;44.20;;;;;;5018420;28;20202;-73
2021/12/26 06:52:39;;;;;;;8.23;7.45;;;18.20;44.40;;;;;;5018269;28;20746;-72
2021/12/26 06:55:07;;;;;;;8.05;7.35;;;18.20;44.30;;;;;;5018652;28;20208;-72
2021/12/26 06:57:35;;;;;;;7.35;6.75;;;18.20;44.30;;;;;;5018100;28;20236;-72
2021/12/26 07:00:03;;;;;;;7.45;6.85;;;18.20;44.90;;;;;;5017732;28;20200;-72
2021/12/26 07:02:33;;;;;;;7.50;6.80;;;18.20;44.30;;;;;;5018126;28;20196;-72
2021/12/26 07:05:01;;;;;;;7.97;7.28;;;18.20;44.20;;;;;;5018154;28;20291;-71
2021/12/26 07:07:40;;;;;;;7.10;6.40;;;18.20;44.20;;;;;;5017979;28;20726;-74
2021/12/26 07:10:09;;;;;;;7.35;6.65;;;18.20;44.10;;;;;;5017907;28;20200;-73
2021/12/26 07:12:36;;;;;;;7.10;6.50;;;18.20;44.10;;;;;;5017750;28;20226;-71
2021/12/26 07:15:24;;;;;;;7.07;6.47;;;18.20;44.70;;;;;;5034902;28;20291;-74
2021/12/26 07:17:56;;;;;;;7.25;6.60;;;18.20;44.00;;;;;;5017904;28;20575;-73
2021/12/26 07:20:24;;;;;;;7.00;6.43;;;18.30;44.00;;;;;;5017791;28;20291;-72
2021/12/26 07:23:15;;;;;;;7.53;6.82;;;18.30;44.00;;;;;;5033316;28;20279;-72
2021/12/26 07:25:45;;;;;;;6.85;6.25;;;18.30;44.00;;;;;;5017694;28;20303;-72
2021/12/26 07:28:15;;;;;;;7.50;6.90;;;18.20;43.90;;;;;;5017809;28;20196;-72
2021/12/26 07:30:43;;;;;;;7.20;6.60;;;18.30;43.90;;;;;;5035567;28;20668;-71
2021/12/26 07:33:10;;;;;;;7.07;6.40;;;18.30;43.80;;;;;;5017361;28;20196;-70
2021/12/26 07:35:39;;;;;;;6.75;6.15;;;18.30;43.90;;;;;;5017153;28;20200;-72
2021/12/26 07:38:27;;;;;;;6.85;6.25;;;18.30;43.90;;;;;;5035210;28;20706;-71
2021/12/26 07:40:54;;;;;;;7.65;6.95;;;18.30;43.80;;;;;;5017167;28;20204;-72
2021/12/26 07:43:30;;;;;;;6.60;6.00;;;18.30;43.70;;;;;;5017988;28;20272;-74
2021/12/26 07:46:26;;;;;;;6.43;5.82;;;18.30;43.80;;;;;;5034325;28;20662;-72
2021/12/26 07:48:56;;;;;;;7.05;6.45;;;18.30;43.70;;;;;;5017040;28;20295;-71
2021/12/26 07:51:43;;;;;;;6.60;6.00;;;18.40;43.80;;;;;;5035449;28;20251;-72
2021/12/26 07:54:31;;;;;;;6.20;5.70;;;18.40;43.80;;;;;;5034307;28;20299;-72
2021/12/26 07:57:17;;;;;;;6.68;6.07;;;18.40;43.80;;;;;;5034228;28;20692;-74
2021/12/26 08:00:03;;;;;;;7.00;6.40;;;18.40;43.70;;;;;;5034430;28;20194;-73
2021/12/26 08:02:50;;;;;;;7.05;6.45;;;18.40;43.60;;;;;;5023980;28;20266;-74
2021/12/26 08:05:36;;;;;;;6.60;6.10;;;18.40;43.70;;;;;;5034406;28;20216;-73
2021/12/26 08:08:13;;;;;;;7.00;6.40;;;18.40;43.70;;;;;;5017276;28;20681;-73
2021/12/26 08:10:42;;;;;;;6.65;6.05;;;18.50;43.60;;;;;;5017286;28;20206;-72
2021/12/26 08:13:09;;;;;;;6.97;6.38;;;18.50;43.60;;;;;;5018092;28;20223;-71
2021/12/26 08:15:36;;;;;;;6.68;6.07;;;18.50;43.60;;;;;;5016507;28;20258;-72
2021/12/26 08:18:03;;;;;;;7.00;6.40;;;18.50;43.70;;;;;;5018075;28;20204;-73
2021/12/26 08:20:30;;;;;;;6.85;6.25;;;18.50;43.50;;;;;;5024053;28;20218;-72
2021/12/26 08:22:58;;;;;;;6.47;5.97;;;18.50;43.50;;;;;;5021633;28;20239;-72
2021/12/26 08:25:25;;;;;;;6.97;6.38;;;18.50;43.60;;;;;;5024246;28;20199;-73
2021/12/26 08:27:53;;;;;;;7.53;6.85;;;18.50;43.70;;;;;;5020947;28;20293;-70
2021/12/26 08:30:24;;;;;;;6.75;6.15;;;18.50;43.50;;;;;;5035718;28;20179;-71
2021/12/26 08:32:53;;;;;;;7.18;6.57;;;18.50;43.60;;;;;;5017547;28;20668;-71
2021/12/26 08:35:21;;;;;;;6.78;6.18;;;18.50;44.00;;;;;;5033151;28;20188;-70
2021/12/26 08:37:48;;;;;;;6.45;5.88;;;18.50;44.40;;;;;;5015253;28;20219;-73
2021/12/26 08:40:15;;;;;;;6.88;6.22;;;18.60;44.40;;;;;;5014741;28;20200;-72
2021/12/26 08:42:42;;;;;;;7.47;6.88;;;18.60;44.70;;;;;;5014944;28;20224;-71
2021/12/26 08:45:12;;;;;;;6.78;6.10;;;18.60;44.70;;;;;;5015178;28;20203;-73
2021/12/26 08:47:39;;;;;;;7.20;6.60;;;18.60;44.20;;;;;;5032549;28;20274;-71
2021/12/26 08:50:07;;;;;;;7.60;6.80;;;18.70;45.30;;;;;;5015137;28;20291;-73
2021/12/26 08:52:35;;;;;;;7.10;6.50;;;18.70;45.70;;;;;;5014818;28;20192;-71
2021/12/26 08:55:02;;;;;;;7.38;6.78;;;18.70;46.40;;;;;;5014851;28;20266;-70
2021/12/26 08:57:30;;;;;;;8.55;7.68;;;18.80;46.60;;;;;;5014798;28;20258;-72
2021/12/26 08:59:57;;;;;;;8.60;7.80;;;18.80;47.20;;;;;;5018092;28;20256;-72
2021/12/26 09:02:26;;;;;;;7.40;6.70;;;18.80;45.00;;;;;;5018134;28;20294;-69
2021/12/26 09:04:53;;;;;;;7.60;6.90;;;18.80;44.80;;;;;;5018769;28;20223;-70
2021/12/26 09:07:20;;;;;;;6.90;6.30;;;18.80;44.70;;;;;;5018341;28;20769;-72
2021/12/26 09:09:48;;;;;;;7.38;6.65;;;18.90;45.50;;;;;;5018297;28;20250;-72
2021/12/26 09:12:14;;;;;;;6.95;6.35;;;19.00;45.50;;;;;;5018220;28;20597;-74
2021/12/26 09:14:42;;;;;;;7.78;6.82;;;19.00;45.30;;;;;;5036116;28;20188;-72
2021/12/26 09:17:09;;;;;;;8.35;7.55;;;19.00;45.40;;;;;;5035807;28;20216;-72
2021/12/26 09:19:37;;;;;;;7.30;6.60;;;19.10;45.60;;;;;;5036098;28;20206;-72
2021/12/26 09:22:06;;;;;;;7.60;6.80;;;19.20;45.70;;;;;;5018278;28;20200;-72
2021/12/26 09:24:33;;;;;;;8.43;6.95;;;19.20;45.60;;;;;;5018313;28;20199;-74
2021/12/26 09:27:00;;;;;;;353.08;238.68;;;19.30;46.00;;;;;;5017888;28;20251;-73
2021/12/26 09:29:28;;;;;;;351.35;240.13;;;19.30;49.50;;;;;;5018022;28;20196;-72
2021/12/26 09:31:56;;;;;;;133.43;86.97;;;19.30;50.70;;;;;;5017868;28;20589;-72
2021/12/26 09:34:23;;;;;;;127.05;81.05;;;19.40;49.40;;;;;;5018140;28;20195;-74
2021/12/26 09:36:52;;;;;;;86.40;61.28;;;19.40;50.10;;;;;;5017729;28;20258;-72
2021/12/26 09:39:19;;;;;;;93.32;59.33;;;19.50;48.90;;;;;;5035841;28;20203;-71
2021/12/26 09:41:47;;;;;;;84.90;57.15;;;19.50;48.50;;;;;;5018003;28;20231;-72
2021/12/26 09:44:14;;;;;;;88.70;58.67;;;19.50;48.80;;;;;;5017617;28;20240;-74
2021/12/26 09:46:41;;;;;;;78.40;53.70;;;19.60;48.80;;;;;;5017405;28;20298;-74
2021/12/26 09:49:08;;;;;;;84.43;55.60;;;19.60;48.50;;;;;;5035208;28;20605;-71
2021/12/26 09:51:36;;;;;;;81.85;52.35;;;19.60;48.80;;;;;;5035740;28;20188;-73
2021/12/26 09:54:04;;;;;;;77.88;52.15;;;19.70;48.90;;;;;;5017396;28;20207;-74
2021/12/26 09:56:32;;;;;;;74.65;51.25;;;19.70;49.00;;;;;;5017353;28;20255;-72
2021/12/26 09:59:01;;;;;;;74.97;49.13;;;19.80;49.00;;;;;;5017445;28;20558;-70
2021/12/26 10:01:30;;;;;;;75.18;50.55;;;19.80;48.80;;;;;;5017726;28;20204;-71
2021/12/26 10:03:57;;;;;;;72.63;48.97;;;19.80;48.90;;;;;;5017316;28;20208;-73
2021/12/26 10:06:25;;;;;;;76.05;49.25;;;19.80;48.80;;;;;;5017517;28;20216;-72
2021/12/26 10:08:57;;;;;;;68.63;46.28;;;19.90;49.10;;;;;;5017425;28;20214;-73
2021/12/26 10:11:27;;;;;;;74.15;46.97;;;19.90;48.80;;;;;;5016744;28;20207;-74
2021/12/26 10:13:56;;;;;;;53.50;35.67;;;20.00;48.70;;;;;;5035137;28;20583;-72
2021/12/26 10:16:24;;;;;;;44.88;32.58;;;19.90;47.60;;;;;;5016982;28;20220;-72
2021/12/26 10:18:52;;;;;;;44.83;31.50;;;19.90;47.20;;;;;;5017203;28;20202;-73
2021/12/26 10:21:32;;;;;;;49.63;33.70;;;20.00;47.20;;;;;;5034691;28;20199;-75
2021/12/26 10:24:01;;;;;;;47.45;31.80;;;20.00;47.50;;;;;;5017131;28;20199;-72
2021/12/26 10:26:31;;;;;;;44.53;31.35;;;20.00;47.60;;;;;;5016626;28;20766;-72
2021/12/26 10:29:06;;;;;;;46.58;31.58;;;20.00;48.10;;;;;;5016940;28;20283;-73
2021/12/26 10:31:33;;;;;;;39.92;29.65;;;20.00;47.70;;;;;;5016794;28;20667;-74
2021/12/26 10:34:00;;;;;;;44.33;29.98;;;20.10;48.10;;;;;;5016810;28;20200;-73
2021/12/26 10:36:43;;;;;;;45.60;28.98;;;20.10;47.90;;;;;;5017318;28;20216;-74
2021/12/26 10:39:12;;;;;;;39.83;28.83;;;20.10;48.10;;;;;;5017230;28;20196;-73
2021/12/26 10:41:44;;;;;;;37.90;26.45;;;20.10;48.10;;;;;;5016908;28;20196;-71
2021/12/26 10:44:31;;;;;;;34.88;25.23;;;20.20;48.20;;;;;;5016634;28;20691;-73
2021/12/26 10:47:00;;;;;;;37.03;24.58;;;20.20;48.20;;;;;;5016365;28;20231;-72
2021/12/26 10:49:30;;;;;;;33.78;24.50;;;20.20;48.10;;;;;;5016601;28;20204;-74
2021/12/26 10:51:58;;;;;;;33.92;23.92;;;20.20;48.10;;;;;;5017049;28;20204;-72
2021/12/26 10:54:27;;;;;;;33.67;23.95;;;20.20;47.90;;;;;;5016837;28;20200;-74
2021/12/26 10:57:10;;;;;;;35.28;23.95;;;20.30;48.10;;;;;;5016436;28;20778;-71
2021/12/26 10:59:39;;;;;;;30.23;21.65;;;20.40;48.50;;;;;;5016849;28;20652;-72
2021/12/26 11:02:06;;;;;;;31.65;21.42;;;20.40;48.20;;;;;;5016797;28;20294;-73
2021/12/26 11:04:35;;;;;;;33.35;20.55;;;20.40;48.10;;;;;;5016653;28;20196;-73
2021/12/26 11:07:02;;;;;;;29.58;19.73;;;20.40;48.40;;;;;;5016781;28;20224;-73
2021/12/26 11:09:30;;;;;;;26.48;18.95;;;20.40;47.90;;;;;;5016902;28;20619;-73
2021/12/26 11:12:01;;;;;;;37.53;22.58;;;20.40;48.00;;;;;;5034902;28;20196;-73
2021/12/26 11:14:29;;;;;;;99.63;52.95;;;20.40;47.80;;;;;;5034569;28;20196;-72
2021/12/26 11:16:56;;;;;;;74.82;41.28;;;20.40;46.60;;;;;;5016732;28;20326;-71
2021/12/26 11:19:43;;;;;;;88.78;48.42;;;20.40;46.20;;;;;;5015946;28;20286;-74
2021/12/26 11:22:10;;;;;;;79.15;43.38;;;20.30;46.50;;;;;;5014894;28;20291;-73
2021/12/26 11:24:37;;;;;;;81.90;45.00;;;20.30;46.20;;;;;;5015690;28;20223;-73
2021/12/26 11:27:05;;;;;;;73.18;42.35;;;20.20;46.40;;;;;;5015818;28;20219;-73
2021/12/26 11:29:34;;;;;;;79.95;45.80;;;20.20;46.20;;;;;;5015812;28;20200;-73
2021/12/26 11:32:01;;;;;;;78.75;45.58;;;20.20;46.50;;;;;;5015755;28;20731;-73
2021/12/26 11:34:28;;;;;;;71.88;41.80;;;20.20;46.60;;;;;;5015663;28;20211;-73
2021/12/26 11:36:56;;;;;;;69.32;42.33;;;20.20;46.40;;;;;;5015552;28;20696;-73
2021/12/26 11:39:42;;;;;;;72.75;41.63;;;20.20;46.30;;;;;;5033547;28;20243;-73
2021/12/26 11:43:00;;;;;;;70.20;41.30;;;20.20;46.20;;;;;;5033365;28;20191;-72
2021/12/26 11:45:54;;;;;;;72.95;40.72;;;20.20;46.20;;;;;;5033170;28;20237;-73
2021/12/26 11:49:08;;;;;;;65.00;38.10;;;20.10;46.10;;;;;;5032653;28;20250;-71
2021/12/26 11:52:20;;;;;;;63.35;37.42;;;20.20;46.20;;;;;;5032985;28;20203;-73
2021/12/26 11:55:11;;;;;;;58.05;35.65;;;20.20;45.90;;;;;;5015725;28;20282;-73
2021/12/26 11:58:00;;;;;;;60.35;35.63;;;20.20;45.90;;;;;;5015601;28;20406;-74
2021/12/26 12:00:28;;;;;;;63.03;35.85;;;20.20;46.50;;;;;;5033118;28;20172;-74
2021/12/26 12:02:58;;;;;;;57.83;34.67;;;20.20;46.50;;;;;;5015497;28;20219;-72
2021/12/26 12:05:27;;;;;;;60.20;35.67;;;20.20;45.90;;;;;;5015463;28;20290;-73
2021/12/26 12:07:58;;;;;;;61.28;35.65;;;20.20;45.80;;;;;;5015060;28;20224;-73
2021/12/26 12:10:31;;;;;;;56.72;31.75;;;20.30;45.90;;;;;;5033203;28;20192;-72
2021/12/26 12:12:58;;;;;;;57.63;33.17;;;20.30;45.70;;;;;;5015776;28;20195;-71
2021/12/26 12:15:44;;;;;;;53.10;31.58;;;20.30;45.60;;;;;;5031828;28;20196;-73
2021/12/26 12:18:14;;;;;;;54.22;31.35;;;20.30;45.30;;;;;;5031715;28;20648;-71
2021/12/26 12:20:41;;;;;;;50.20;30.65;;;20.30;45.30;;;;;;5015531;28;20200;-73
2021/12/26 12:23:15;;;;;;;53.25;30.45;;;20.30;45.20;;;;;;5032776;28;20672;-73
2021/12/26 12:25:52;;;;;;;44.92;26.45;;;20.30;45.80;;;;;;5034156;28;20648;-72
2021/12/26 12:28:21;;;;;;;40.45;25.60;;;20.30;45.00;;;;;;5032416;28;20212;-73
2021/12/26 12:30:49;;;;;;;37.42;24.13;;;20.30;44.90;;;;;;5017887;28;20576;-72
2021/12/26 12:33:22;;;;;;;108.78;64.07;;;20.30;44.60;;;;;;5038340;28;20316;-73
2021/12/26 12:35:55;;;;;;;34.30;21.25;;;20.30;44.80;;;;;;5039992;28;21915;-73
2021/12/26 12:38:23;;;;;;;35.72;21.90;;;20.30;45.50;;;;;;5039077;28;20199;-74
2021/12/26 12:40:51;;;;;;;35.42;20.50;;;20.30;44.80;;;;;;5039807;28;20188;-73
2021/12/26 12:43:19;;;;;;;32.80;19.95;;;20.40;45.00;;;;;;5040802;28;20292;-73
2021/12/26 12:46:07;;;;;;;31.23;19.23;;;20.40;45.10;;;;;;5039210;28;20672;-71
2021/12/26 12:48:40;;;;;;;29.08;18.35;;;20.40;44.90;;;;;;5039540;28;20216;-73
2021/12/26 12:51:35;;;;;;;26.40;16.50;;;20.40;45.10;;;;;;5036291;28;20184;-72
2021/12/26 12:54:03;;;;;;;28.20;16.67;;;20.40;45.10;;;;;;5019012;28;20196;-73
2021/12/26 12:56:40;;;;;;;25.55;17.25;;;20.50;44.60;;;;;;5035449;28;20270;-72
2021/12/26 12:59:27;;;;;;;27.77;16.88;;;20.40;44.50;;;;;;5035454;28;20275;-70